Portada
METAR-TAF:

METAR-TAF

Aeroports :

Lord Howe Island, Austràlia

latitud: 31-32-18S, longitud: 159-04-38E, altitud: 5 m

Observació

L'informe es va fer fa 32 minuts, a les 11:30 UTC
Vent 10 kt del Est
Temperatura 21°C
Humitat 69%
Pressió 1025 hPa
Visibilitat 10 km o més
Cel ennuvolat a una alçada de 3800 ft
Cel ennuvolat a una alçada de 4400 ft
Cel cobert a una alçada de 5600 ft

METAR: YLHI 091130Z AUTO 09010KT 9999 // BKN038 BKN044 OVC056 21/15 Q1025

Hora: 22:02 (12:02 UTC)

Pronòstic

L'informe es va fer fa 6 hores i 22 minuts, a les 05:40 UTC
Pronòstic vàlid del 09 a les 06 UTC al 10 a les 06 UTC
Vent 14 kt del Est/Sud-Est
Visibilitat 10 km o més
Núvols disperses a una alçada de 2500 ft
xàfecs de pluja
A partir de les 09 a les 1800 UTC
Vent 12 kt del Est
Visibilitat 10 km o més
Núvols disperses a una alçada de 2500 ft
xàfecs de pluja

TAF: YLHI 090540Z 0906/1006 12014KT 9999 -SHRA SCT025 FM091800 09012KT 9999 -SHRA SCT025

Observacions i pronòstics meteorològics de més de 4000 aeroports (METAR i TAF).

Les estacions disponibles són els punts grocs i vermells al mapa.

Posi el ratolí al punt desitjat per veure el nom de l'estació.

Feu clic per veure les observacions i els pronòstics meteorològics.

Per canviar el mapa: feu clic els botons verds amb una creu de color negre per apropar; al botó verd amb un guió per allunyar la imatge; o en les fletxes verdes per a mapes adjacents.


METAR-TAF: